Oberwart, Austria
Current Conditions -  °F | °C
As of 6:50 AM on Saturday 29 Nov 2014 (Local Time) from LOWG Reporting Station
Light Rain Light Rain  
Wind Chill: 37°   Ceiling: 300
Heat Index: 37°   Visibility: 1.5mi
Dew Point: 36°   Wind: 2mph
Humidity: 93%   Direction: NA
Pressure: 30.03"   Gusts: NA
Location:  47.29°N, 16.2°E
Report Text: LOWG 290450Z VRB02KT 2500 -DZRA BR SCT002 OVC003 03/02 Q1017 TEMPO SCT002 BKN005
Loading
Personal Weather Stations






























Interactive Weather Map New forecast layout! Learn more

10-Day Weather Forecast

Advertisements
Track Severe Weather on mobile